Airfield :
LOGIN :

Register | Disclaimer

   EN    FR    IT 

 










Legend :    VFR   Marginal VFR   IFR   Intensive IFR   Very Intensive IFR
Visi :
Ceiling :
>= 8 km
>= 3000ft
5 to 8 km
1000 to 3000 ft
1500m to 5 km
500 to 1000 ft
800 to 1500m
200 to 500 ft
< 800m
< 200 ft
Symbols :   Thunderstorms  Fog  Heavy snow  Heavy precipitations  Wind > 20 kt
SIGMETs :     Misc.  Thunderstorms  Icing  Turbulence  Mountain Waves  Volcanic Ashes






- Airport Elevation : 502 ft
- IATA code : ORK


EICK - Cork

CURRENT METAR :
  • 130830Z 01007KT 9999 -DZ FEW003 BKN014 17/17 Q1014 NOSIG

EXPIRED METARs :
  • 130800Z 01008KT 9999 -RADZ FEW004 BKN017 17/17 Q1014 NOSIG
  • 130730Z 36009KT 9999 BKN004 BKN020 17/17 Q1014 BECMG BKN007
  • 130700Z 33008KT 2000 BR BKN003 SCT022 17/16 Q1013 NOSIG
  • 130630Z 33009KT 8000 BKN003 OVC025 17/16 Q1013 NOSIG
  • 130600Z 34010KT 3000 BR FEW001 BKN002 SCT020CB 17/16 Q1013 NOSIG

TAF AMD TAF EICK
Valid from the 13 at 06:00 until the 14 at 06:00 UTC


130615Z 1306/1406 35008KT 3000 -SHRA BR BKN002
TEMPO 1306/1307 1200 BKN001 SCT020CB
BECMG 1307/1309 6000 SCT002 BKN007
BECMG 1309/1311 06008KT 9999 NSW SCT007 BKN020
TEMPO 1309/1313 -SHRA BKN007 SCT020CB
BECMG 1312/1314 12008KT
PROB30
TEMPO 1313/1406 4000 SHRA BKN007 SCT020CB
BECMG 1318/1320 VRB03KT



MET'MAP, your aeronautical weather chart ! - Copyright ORBIFLY December 2007 - Disclaimer

ORBIFLY MET'MAP TEAM :

Programming & Development : Alexandra Zaïnal
Concept & original design : Baudouin d'Aumeries
Assistance for programming : Marc-Olivier Méhu
Technical & hardware support : Manuel Goepfert

Contact : metmap@orbifly.com




SOURCES & CREDITS :

   NOAA